createdAt,value
2022-12-26T00:00:33.055Z,93911.75
2022-12-26T00:01:36.849Z,93914.16
2022-12-26T00:02:39.810Z,93912.88
2022-12-26T00:03:41.529Z,93907.13
2022-12-26T00:04:48.211Z,93920.06
2022-12-26T00:05:54.019Z,93920.94
2022-12-26T00:06:55.516Z,93918.13
2022-12-26T00:07:57.108Z,93918.84
2022-12-26T00:09:00.031Z,93922.97
2022-12-26T00:10:01.519Z,93928.88
2022-12-26T00:11:06.107Z,93929.50
2022-12-26T00:12:07.602Z,93932.13
2022-12-26T00:13:38.862Z,93936.06
2022-12-26T00:14:30.623Z,93927.88
2022-12-26T00:15:55.964Z,93923.63
2022-12-26T00:16:57.509Z,93927.88
2022-12-26T00:18:00.361Z,93930.88
2022-12-26T00:19:02.697Z,93930.38
2022-12-26T00:20:05.270Z,93931.63
2022-12-26T00:21:07.624Z,93930.81
2022-12-26T00:22:09.328Z,93934.97
2022-12-26T00:23:10.841Z,93940.34
2022-12-26T00:24:12.342Z,93936.25
2022-12-26T00:25:13.952Z,93930.69
2022-12-26T00:26:17.578Z,93931.81
2022-12-26T00:27:19.257Z,93927.56
2022-12-26T00:28:20.763Z,93933.78
2022-12-26T00:29:22.275Z,93930.19
2022-12-26T00:30:23.850Z,93929.69
2022-12-26T00:31:28.585Z,93929.69
2022-12-26T00:32:30.149Z,93935.41
2022-12-26T00:33:33.500Z,93928.84
2022-12-26T00:34:35.001Z,93921.47
2022-12-26T00:35:36.543Z,93926.84
2022-12-26T00:36:38.089Z,93931.78
2022-12-26T00:37:39.598Z,93931.13
2022-12-26T00:38:42.617Z,93938.31
2022-12-26T00:39:44.095Z,93940.03
2022-12-26T00:40:45.609Z,93939.34
2022-12-26T00:41:47.151Z,93944.94
2022-12-26T00:42:48.651Z,93941.16
2022-12-26T00:43:50.707Z,93938.03
2022-12-26T00:45:01.020Z,93930.81
2022-12-26T00:46:02.628Z,93934.41
2022-12-26T00:47:04.176Z,93933.94
2022-12-26T00:48:35.284Z,93940.66
2022-12-26T00:50:15.405Z,93943.78
2022-12-26T00:51:26.575Z,93940.19
2022-12-26T00:52:28.110Z,93930.50
2022-12-26T00:53:29.701Z,93930.34
2022-12-26T00:54:31.412Z,93933.31
2022-12-26T00:55:32.980Z,93923.28
2022-12-26T00:56:34.523Z,93931.16
2022-12-26T00:57:35.991Z,93928.19
2022-12-26T00:58:37.578Z,93927.53
2022-12-26T00:59:39.053Z,93930.00
2022-12-26T01:00:40.587Z,93930.63
2022-12-26T01:01:42.320Z,93939.84
2022-12-26T01:02:44.005Z,93930.63
2022-12-26T01:03:48.015Z,93931.63
2022-12-26T01:04:49.501Z,93936.88
2022-12-26T01:05:51.710Z,93945.38
2022-12-26T01:06:53.236Z,93932.09
2022-12-26T01:08:23.020Z,93934.06
2022-12-26T01:09:16.326Z,93939.31
2022-12-26T01:10:17.880Z,93936.88
2022-12-26T01:11:19.450Z,93941.28
2022-12-26T01:12:20.937Z,93935.53
2022-12-26T01:13:22.593Z,93941.00
2022-12-26T01:14:24.079Z,93933.94
2022-12-26T01:15:25.647Z,93946.38
2022-12-26T01:16:27.194Z,93938.16
2022-12-26T01:17:34.492Z,93945.22
2022-12-26T01:18:36.401Z,93943.28
2022-12-26T01:19:39.252Z,93934.06
2022-12-26T01:20:40.787Z,93933.06
2022-12-26T01:21:42.322Z,93938.16
2022-12-26T01:22:43.824Z,93934.59
2022-12-26T01:23:45.358Z,93930.44
2022-12-26T01:24:46.829Z,93928.16
2022-12-26T01:26:35.407Z,93941.28
2022-12-26T01:27:37.224Z,93936.03
2022-12-26T01:28:38.752Z,93932.13
2022-12-26T01:29:40.216Z,93919.03
2022-12-26T01:30:41.702Z,93920.28
2022-12-26T01:31:43.282Z,93924.22
2022-12-26T01:32:44.834Z,93931.97
2022-12-26T01:33:46.617Z,93928.19
2022-12-26T01:34:49.580Z,93932.28
2022-12-26T01:35:52.760Z,93927.25
2022-12-26T01:36:54.531Z,93927.91
2022-12-26T01:37:56.018Z,93933.94
2022-12-26T01:38:57.478Z,93936.41
2022-12-26T01:39:58.988Z,93936.22
2022-12-26T01:41:00.776Z,93936.22
2022-12-26T01:42:02.311Z,93931.97
2022-12-26T01:43:03.831Z,93933.78
2022-12-26T01:44:07.194Z,93927.06
2022-12-26T01:45:25.370Z,93924.56
2022-12-26T01:46:31.704Z,93931.31
2022-12-26T01:47:40.841Z,93932.63
2022-12-26T01:48:42.587Z,93937.22
2022-12-26T01:49:48.881Z,93944.09
2022-12-26T01:50:56.711Z,93941.81
2022-12-26T01:52:02.803Z,93940.13
2022-12-26T01:53:11.996Z,93937.41
2022-12-26T01:54:38.198Z,93941.47
2022-12-26T01:55:38.165Z,93937.88
2022-12-26T01:56:42.196Z,93945.22
2022-12-26T01:57:47.527Z,93949.19
2022-12-26T01:58:52.058Z,93952.28
2022-12-26T01:59:56.166Z,93955.09
2022-12-26T02:00:58.118Z,93951.81
2022-12-26T02:02:00.659Z,93951.97
2022-12-26T02:03:02.496Z,93951.00
2022-12-26T02:04:07.121Z,93940.84
2022-12-26T02:05:08.840Z,93942.13
2022-12-26T02:06:13.871Z,93940.50
2022-12-26T02:07:15.479Z,93942.97
2022-12-26T02:08:21.534Z,93940.50
2022-12-26T02:09:23.531Z,93943.63
2022-12-26T02:10:48.301Z,93939.88
2022-12-26T02:12:34.684Z,93946.28
2022-12-26T02:13:18.301Z,93946.13
2022-12-26T02:14:20.164Z,93946.78
2022-12-26T02:15:21.736Z,93944.66
2022-12-26T02:16:23.288Z,93938.72
2022-12-26T02:17:25.396Z,93945.63
2022-12-26T02:18:26.881Z,93944.31
2022-12-26T02:19:36.793Z,93936.59
2022-12-26T02:20:45.739Z,93949.22
2022-12-26T02:22:07.455Z,93943.81
2022-12-26T02:23:29.855Z,93950.22
2022-12-26T02:24:41.666Z,93946.94
2022-12-26T02:26:09.906Z,93955.13
2022-12-26T02:27:35.462Z,93954.50
2022-12-26T02:29:15.184Z,93949.59
2022-12-26T02:30:51.024Z,93950.88
2022-12-26T02:32:01.837Z,93943.84
2022-12-26T02:33:36.109Z,93955.97
2022-12-26T02:34:49.145Z,93951.22
2022-12-26T02:36:21.907Z,93940.06
2022-12-26T02:37:36.396Z,93942.84
2022-12-26T02:38:47.467Z,93940.41
2022-12-26T02:40:02.737Z,93932.22
2022-12-26T02:41:14.115Z,93938.59
2022-12-26T02:42:29.061Z,93932.19
2022-12-26T02:43:41.454Z,93940.22
2022-12-26T02:44:50.417Z,93942.22
2022-12-26T02:46:03.519Z,93940.72
2022-12-26T02:47:11.642Z,93938.75
2022-12-26T02:48:19.767Z,93932.53
2022-12-26T02:49:31.710Z,93934.34
2022-12-26T02:51:01.058Z,93941.88
2022-12-26T02:52:10.814Z,93929.25
2022-12-26T02:53:19.689Z,93930.06
2022-12-26T02:54:28.114Z,93924.84
2022-12-26T02:55:32.187Z,93938.75
2022-12-26T02:56:38.826Z,93933.84
2022-12-26T02:57:47.048Z,93938.28
2022-12-26T02:58:55.650Z,93940.56
2022-12-26T03:00:01.755Z,93944.00
2022-12-26T03:01:13.274Z,93945.31
2022-12-26T03:02:22.918Z,93935.97
2022-12-26T03:03:30.092Z,93943.19
2022-12-26T03:04:34.384Z,93942.22
2022-12-26T03:05:40.024Z,93947.59
2022-12-26T03:06:48.090Z,93946.97
2022-12-26T03:07:50.761Z,93944.69
2022-12-26T03:08:57.232Z,93948.25
2022-12-26T03:10:02.301Z,93954.66
2022-12-26T03:11:04.126Z,93943.69
2022-12-26T03:12:08.371Z,93942.03
2022-12-26T03:13:15.216Z,93936.78
2022-12-26T03:14:19.958Z,93939.25
2022-12-26T03:15:24.807Z,93944.66
2022-12-26T03:16:29.382Z,93948.75
2022-12-26T03:17:36.010Z,93950.22
2022-12-26T03:18:56.909Z,93958.41
2022-12-26T03:20:05.938Z,93962.03
2022-12-26T03:21:23.656Z,93956.78
2022-12-26T03:22:31.333Z,93945.97
2022-12-26T03:23:34.783Z,93944.16
2022-12-26T03:24:36.442Z,93941.72
2022-12-26T03:25:42.657Z,93942.34
2022-12-26T03:26:51.000Z,93944.34
2022-12-26T03:27:53.634Z,93950.88
2022-12-26T03:28:55.113Z,93945.16
2022-12-26T03:29:56.642Z,93940.41
2022-12-26T03:31:04.468Z,93944.81
2022-12-26T03:32:11.945Z,93940.91
2022-12-26T03:33:13.487Z,93938.56
2022-12-26T03:34:15.011Z,93938.59
2022-12-26T03:35:16.676Z,93946.97
2022-12-26T03:36:24.998Z,93944.00
2022-12-26T03:37:48.466Z,93933.84
2022-12-26T03:38:58.249Z,93942.34
2022-12-26T03:40:13.981Z,93949.06
2022-12-26T03:41:22.286Z,93929.09
2022-12-26T03:42:34.313Z,93936.94
2022-12-26T03:43:48.691Z,93936.94
2022-12-26T03:44:57.578Z,93938.56
2022-12-26T03:46:11.959Z,93945.72
2022-12-26T03:47:22.003Z,93939.53
2022-12-26T03:48:31.392Z,93939.50
2022-12-26T03:49:39.312Z,93928.59
2022-12-26T03:50:45.464Z,93932.47
2022-12-26T03:51:51.752Z,93937.72
2022-12-26T03:53:04.796Z,93938.88
2022-12-26T03:54:11.349Z,93939.34
2022-12-26T03:55:17.634Z,93935.94
2022-12-26T03:56:24.633Z,93936.72
2022-12-26T03:57:33.345Z,93933.81
2022-12-26T03:58:38.996Z,93928.06
2022-12-26T03:59:58.507Z,93933.63
2022-12-26T04:01:04.291Z,93933.63
2022-12-26T04:02:09.245Z,93932.16
2022-12-26T04:03:13.708Z,93934.13
2022-12-26T04:04:17.078Z,93940.50
2022-12-26T04:05:20.427Z,93949.19
2022-12-26T04:06:28.390Z,93939.03
2022-12-26T04:07:33.680Z,93934.28
2022-12-26T04:08:43.539Z,93944.59
2022-12-26T04:09:48.076Z,93934.72
2022-12-26T04:10:52.345Z,93940.00
2022-12-26T04:11:57.192Z,93950.31
2022-12-26T04:13:00.190Z,93946.72
2022-12-26T04:14:05.723Z,93946.69
2022-12-26T04:15:16.887Z,93949.00
2022-12-26T04:16:24.982Z,93949.97
2022-12-26T04:17:34.995Z,93949.59
2022-12-26T04:18:43.376Z,93952.44
2022-12-26T04:19:57.432Z,93946.56
2022-12-26T04:21:08.329Z,93944.22
2022-12-26T04:22:14.759Z,93942.75
2022-12-26T04:23:28.279Z,93948.84
2022-12-26T04:24:36.096Z,93944.25
2022-12-26T04:25:49.725Z,93952.06
2022-12-26T04:26:58.155Z,93956.34
2022-12-26T04:28:00.175Z,93959.75
2022-12-26T04:29:01.918Z,93954.06
2022-12-26T04:30:04.383Z,93945.38
2022-12-26T04:31:09.262Z,93958.34
2022-12-26T04:32:14.229Z,93955.22
2022-12-26T04:33:20.237Z,93957.19
2022-12-26T04:34:31.199Z,93948.81
2022-12-26T04:35:41.164Z,93949.38
2022-12-26T04:36:48.418Z,93951.63
2022-12-26T04:37:52.253Z,93957.88
2022-12-26T04:38:58.945Z,93958.19
2022-12-26T04:40:02.767Z,93959.66
2022-12-26T04:41:07.027Z,93958.88
2022-12-26T04:42:09.737Z,93967.53
2022-12-26T04:43:48.894Z,93956.72
2022-12-26T04:44:35.848Z,93966.06
2022-12-26T04:45:37.592Z,93958.22
2022-12-26T04:46:41.552Z,93959.03
2022-12-26T04:47:43.327Z,93952.16
2022-12-26T04:48:47.712Z,93952.31
2022-12-26T04:49:50.547Z,93951.34
2022-12-26T04:50:53.064Z,93951.81
2022-12-26T04:51:55.969Z,93952.84
2022-12-26T04:52:57.453Z,93948.91
2022-12-26T04:53:59.013Z,93962.19
2022-12-26T04:55:00.495Z,93947.44
2022-12-26T04:56:01.983Z,93952.84
2022-12-26T04:57:03.947Z,93957.59
2022-12-26T04:58:05.461Z,93957.09
2022-12-26T04:59:07.004Z,93952.84
2022-12-26T05:00:09.692Z,93959.53
2022-12-26T05:01:12.301Z,93957.56
2022-12-26T05:02:14.057Z,93963.63
2022-12-26T05:03:19.595Z,93957.09
2022-12-26T05:04:21.374Z,93953.50
2022-12-26T05:05:24.365Z,93951.06
2022-12-26T05:06:25.876Z,93953.19
2022-12-26T05:07:30.089Z,93954.19
2022-12-26T05:08:53.417Z,93952.19
2022-12-26T05:09:54.961Z,93954.19
2022-12-26T05:10:56.452Z,93954.66
2022-12-26T05:12:08.875Z,93962.81
2022-12-26T05:13:10.418Z,93949.88
2022-12-26T05:14:11.920Z,93957.75
2022-12-26T05:15:14.493Z,93957.94
2022-12-26T05:16:16.053Z,93968.75
2022-12-26T05:17:17.610Z,93958.94
2022-12-26T05:18:19.128Z,93959.72
2022-12-26T05:19:20.659Z,93974.16
2022-12-26T05:20:23.683Z,93969.41
2022-12-26T05:21:25.184Z,93967.06
2022-12-26T05:22:31.361Z,93980.53
2022-12-26T05:23:33.036Z,93978.41
2022-12-26T05:24:38.941Z,93977.44
2022-12-26T05:25:43.619Z,93972.50
2022-12-26T05:26:45.240Z,93970.38
2022-12-26T05:27:47.144Z,93973.97
2022-12-26T05:28:54.447Z,93977.91
2022-12-26T05:29:55.918Z,93968.06
2022-12-26T05:30:57.852Z,93970.53
2022-12-26T05:31:59.437Z,93975.44
2022-12-26T05:33:01.024Z,93970.53
2022-12-26T05:34:02.633Z,93967.34
2022-12-26T05:35:04.517Z,93978.06
2022-12-26T05:36:08.055Z,93973.00
2022-12-26T05:37:09.576Z,93972.19
2022-12-26T05:38:11.320Z,93976.44
2022-12-26T05:39:13.425Z,93980.84
2022-12-26T05:40:15.022Z,93969.97
2022-12-26T05:41:17.097Z,93977.88
2022-12-26T05:42:18.637Z,93966.53
2022-12-26T05:43:20.116Z,93962.13
2022-12-26T05:44:21.667Z,93963.91
2022-12-26T05:45:23.257Z,93968.34
2022-12-26T05:46:24.826Z,93969.00
2022-12-26T05:47:26.794Z,93962.78
2022-12-26T05:48:28.373Z,93961.47
2022-12-26T05:49:29.885Z,93957.72
2022-12-26T05:50:31.447Z,93959.00
2022-12-26T05:51:34.620Z,93948.03
2022-12-26T05:52:36.103Z,93955.41
2022-12-26T05:53:37.620Z,93951.66
2022-12-26T05:54:39.133Z,93965.56
2022-12-26T05:55:40.705Z,93960.00
2022-12-26T05:56:48.957Z,93961.97
2022-12-26T05:57:51.059Z,93960.66
2022-12-26T05:58:55.103Z,93965.09
2022-12-26T05:59:56.621Z,93960.53
2022-12-26T06:01:06.287Z,93958.53
2022-12-26T06:02:08.015Z,93959.50
2022-12-26T06:03:09.753Z,93954.75
2022-12-26T06:04:11.346Z,93956.38
2022-12-26T06:05:12.978Z,93949.03
2022-12-26T06:06:15.552Z,93947.84
2022-12-26T06:07:19.476Z,93949.19
2022-12-26T06:08:20.941Z,93948.69
2022-12-26T06:09:22.887Z,93949.84
2022-12-26T06:10:24.560Z,93951.63
2022-12-26T06:11:27.049Z,93963.09
2022-12-26T06:12:28.670Z,93944.09
2022-12-26T06:13:30.444Z,93945.59
2022-12-26T06:14:31.925Z,93950.50
2022-12-26T06:15:33.407Z,93941.00
2022-12-26T06:16:34.988Z,93944.59
2022-12-26T06:17:36.528Z,93941.03
2022-12-26T06:18:38.596Z,93940.34
2022-12-26T06:19:46.333Z,93933.31
2022-12-26T06:20:48.271Z,93938.72
2022-12-26T06:21:49.803Z,93942.31
2022-12-26T06:22:52.633Z,93944.44
2022-12-26T06:23:54.115Z,93949.38
2022-12-26T06:24:55.629Z,93951.34
2022-12-26T06:25:57.698Z,93960.66
2022-12-26T06:26:59.223Z,93958.72
2022-12-26T06:28:00.745Z,93960.34
2022-12-26T06:29:02.266Z,93952.97
2022-12-26T06:30:04.482Z,93968.03
2022-12-26T06:31:08.563Z,93965.41
2022-12-26T06:32:10.181Z,93971.13
2022-12-26T06:33:11.718Z,93963.44
2022-12-26T06:34:13.235Z,93966.53
2022-12-26T06:35:14.904Z,93965.75
2022-12-26T06:36:18.119Z,93974.72
2022-12-26T06:37:19.611Z,93975.88
2022-12-26T06:38:22.454Z,93973.28
2022-12-26T06:39:24.066Z,93966.75
2022-12-26T06:40:25.646Z,93964.31
2022-12-26T06:41:27.433Z,93976.56
2022-12-26T06:42:29.065Z,93959.69
2022-12-26T06:43:30.668Z,93977.91
2022-12-26T06:44:32.179Z,93975.28
2022-12-26T06:45:33.861Z,93973.75
2022-12-26T06:46:35.440Z,93975.13
2022-12-26T06:47:37.048Z,93978.34
2022-12-26T06:48:38.562Z,93972.94
2022-12-26T06:49:40.034Z,93980.03
2022-12-26T06:50:41.543Z,93978.06
2022-12-26T06:51:43.035Z,93981.66
2022-12-26T06:52:44.554Z,93976.38
2022-12-26T06:53:47.666Z,93970.31
2022-12-26T06:54:49.237Z,93965.06
2022-12-26T06:55:52.268Z,93962.00
2022-12-26T06:56:53.801Z,93967.38
2022-12-26T06:57:55.274Z,93971.47
2022-12-26T06:58:58.370Z,93975.75
2022-12-26T06:59:59.840Z,93976.06
2022-12-26T07:01:04.605Z,93975.94
2022-12-26T07:02:06.453Z,93977.84
2022-12-26T07:03:08.104Z,93968.41
2022-12-26T07:04:12.362Z,93969.19
2022-12-26T07:05:13.961Z,93975.59
2022-12-26T07:06:21.899Z,93976.44
2022-12-26T07:07:23.475Z,93966.75
2022-12-26T07:08:25.011Z,93971.69
2022-12-26T07:09:33.421Z,93978.38
2022-12-26T07:10:35.854Z,93968.91
2022-12-26T07:11:39.346Z,93975.13
2022-12-26T07:12:40.863Z,93987.06
2022-12-26T07:13:42.807Z,93978.25
2022-12-26T07:14:44.276Z,93982.34
2022-12-26T07:15:48.526Z,93980.19
2022-12-26T07:16:50.128Z,93983.47
2022-12-26T07:17:52.192Z,93983.63
2022-12-26T07:18:54.058Z,93995.63
2022-12-26T07:19:55.586Z,93983.31
2022-12-26T07:20:57.147Z,93973.47
2022-12-26T07:21:58.635Z,93982.34
2022-12-26T07:23:00.167Z,93983.97
2022-12-26T07:24:01.730Z,93984.13
2022-12-26T07:25:05.340Z,93986.75
2022-12-26T07:26:07.501Z,93994.94
2022-12-26T07:27:08.995Z,93999.34
2022-12-26T07:28:10.492Z,93991.00
2022-12-26T07:29:13.080Z,93991.03
2022-12-26T07:30:14.677Z,93994.13
2022-12-26T07:31:31.586Z,93991.19
2022-12-26T07:32:33.123Z,93988.22
2022-12-26T07:33:34.741Z,93985.97
2022-12-26T07:34:36.232Z,93982.84
2022-12-26T07:35:37.743Z,93990.53
2022-12-26T07:36:39.503Z,93986.63
2022-12-26T07:37:40.990Z,93977.94
2022-12-26T07:38:42.802Z,93989.25
2022-12-26T07:39:44.356Z,93973.50
2022-12-26T07:40:47.210Z,93971.38
2022-12-26T07:41:48.719Z,93981.19
2022-12-26T07:42:52.753Z,93986.63
2022-12-26T07:43:54.259Z,93982.34
2022-12-26T07:44:55.765Z,93982.19
2022-12-26T07:45:57.838Z,93985.63
2022-12-26T07:47:00.375Z,93980.56
2022-12-26T07:48:01.932Z,93981.69
2022-12-26T07:49:11.268Z,93975.44
2022-12-26T07:50:12.754Z,93972.03
2022-12-26T07:51:14.291Z,93982.19
2022-12-26T07:52:15.829Z,93971.38
2022-12-26T07:53:17.353Z,93973.50
2022-12-26T07:54:19.309Z,93976.94
2022-12-26T07:55:21.103Z,93980.03
2022-12-26T07:56:24.149Z,93986.44
2022-12-26T07:58:48.752Z,93984.63
2022-12-26T07:59:53.410Z,93986.13
2022-12-26T08:00:55.446Z,93980.69
2022-12-26T08:01:58.303Z,93989.53
2022-12-26T08:03:06.942Z,93984.97
2022-12-26T08:04:21.390Z,93983.16
2022-12-26T08:05:22.992Z,93989.22
2022-12-26T08:06:24.497Z,93985.81
2022-12-26T08:07:26.013Z,93974.50
2022-12-26T08:08:27.690Z,93979.88
2022-12-26T08:09:29.236Z,93990.38
2022-12-26T08:10:30.758Z,93978.91
2022-12-26T08:11:35.008Z,93984.31
2022-12-26T08:12:36.548Z,93975.16
2022-12-26T08:13:38.087Z,93980.53
2022-12-26T08:14:39.962Z,93990.22
2022-12-26T08:15:41.644Z,93984.13
2022-12-26T08:16:47.944Z,93978.25
2022-12-26T08:17:52.763Z,93983.00
2022-12-26T08:18:54.237Z,93985.63
2022-12-26T08:19:55.745Z,93987.59
2022-12-26T08:20:58.172Z,94002.97
2022-12-26T08:21:59.795Z,93996.91
2022-12-26T08:23:02.307Z,93997.25
2022-12-26T08:24:04.010Z,93986.59
2022-12-26T08:25:06.790Z,93991.69
2022-12-26T08:26:10.397Z,93991.16
2022-12-26T08:27:13.284Z,93986.75
2022-12-26T08:28:14.973Z,93984.63
2022-12-26T08:29:16.478Z,93984.78
2022-12-26T08:30:18.094Z,93987.59
2022-12-26T08:31:20.709Z,93979.84
2022-12-26T08:32:23.849Z,93988.38
2022-12-26T08:33:25.378Z,93981.16
2022-12-26T08:34:32.331Z,93978.38
2022-12-26T08:35:34.025Z,93982.34
2022-12-26T08:36:35.562Z,93973.31
2022-12-26T08:37:37.074Z,93982.31
2022-12-26T08:38:39.564Z,93986.56
2022-12-26T08:39:41.054Z,93988.56
2022-12-26T08:40:44.346Z,93985.88
2022-12-26T08:41:46.264Z,93990.03
2022-12-26T08:43:03.409Z,93993.13
2022-12-26T08:44:27.502Z,93985.22
2022-12-26T08:45:29.943Z,93991.56
2022-12-26T08:46:31.494Z,93985.84
2022-12-26T08:47:33.114Z,93976.69
2022-12-26T08:48:36.657Z,93981.25
2022-12-26T08:49:38.289Z,93987.31
2022-12-26T08:50:41.511Z,93993.22
2022-12-26T08:51:43.204Z,93987.47
2022-12-26T08:52:44.745Z,93979.06
2022-12-26T08:53:47.103Z,93984.94
2022-12-26T08:54:48.631Z,93987.38
2022-12-26T08:55:50.103Z,93976.75
2022-12-26T08:56:51.594Z,93992.50
2022-12-26T08:57:54.490Z,93988.25
2022-12-26T08:58:56.077Z,93999.28
2022-12-26T08:59:57.565Z,93985.09
2022-12-26T09:01:06.129Z,93982.66
2022-12-26T09:02:09.976Z,93983.94
2022-12-26T09:03:11.736Z,93982.63
2022-12-26T09:04:13.542Z,93984.06
2022-12-26T09:05:15.234Z,93987.78
2022-12-26T09:06:16.758Z,93985.56
2022-12-26T09:07:18.580Z,93988.66
2022-12-26T09:08:20.104Z,93990.75
2022-12-26T09:09:21.591Z,93985.47
2022-12-26T09:10:23.108Z,93992.56
2022-12-26T09:11:25.427Z,93991.41
2022-12-26T09:12:27.009Z,93990.91
2022-12-26T09:13:30.140Z,94001.78
2022-12-26T09:14:31.685Z,94003.88
2022-12-26T09:15:33.210Z,93997.38
2022-12-26T09:16:41.863Z,94003.88
2022-12-26T09:17:45.766Z,94008.53
2022-12-26T09:18:48.428Z,94013.56
2022-12-26T09:19:49.914Z,94008.31
2022-12-26T09:20:51.402Z,94013.91
2022-12-26T09:21:52.903Z,94012.78
2022-12-26T09:22:57.188Z,94010.34
2022-12-26T09:24:00.054Z,94009.06
2022-12-26T09:25:02.575Z,94006.66
2022-12-26T09:26:05.930Z,94007.78
2022-12-26T09:27:07.578Z,94013.19
2022-12-26T09:28:09.061Z,94011.56
2022-12-26T09:29:13.034Z,94009.59
2022-12-26T09:30:15.042Z,94009.56
2022-12-26T09:31:18.500Z,94000.91
2022-12-26T09:32:20.068Z,94009.25
2022-12-26T09:33:21.557Z,94006.94
2022-12-26T09:34:23.034Z,94014.63
2022-12-26T09:35:24.585Z,94011.09
2022-12-26T09:36:28.270Z,94014.34
2022-12-26T09:37:29.825Z,94008.53
2022-12-26T09:38:31.330Z,94013.75
2022-12-26T09:39:33.038Z,94009.84
2022-12-26T09:40:46.465Z,94014.41
2022-12-26T09:42:08.072Z,94017.06
2022-12-26T09:43:19.465Z,94016.09
2022-12-26T09:44:28.879Z,94023.78
2022-12-26T09:45:50.253Z,94014.69
2022-12-26T09:47:04.225Z,94027.66
2022-12-26T09:48:14.195Z,94008.22
2022-12-26T09:49:19.101Z,94016.63
2022-12-26T09:50:25.783Z,94011.31
2022-12-26T09:51:29.865Z,94018.88
2022-12-26T09:52:40.573Z,94012.19
2022-12-26T09:53:43.408Z,94012.25
2022-12-26T09:54:51.051Z,94021.72
2022-12-26T09:55:56.693Z,94027.78
2022-12-26T09:57:03.498Z,94023.13
2022-12-26T09:58:17.900Z,94025.50
2022-12-26T09:59:24.286Z,94021.84
2022-12-26T10:00:29.808Z,94018.56
2022-12-26T10:01:35.577Z,94022.78
2022-12-26T10:02:37.260Z,94030.72
2022-12-26T10:03:41.414Z,94021.50
2022-12-26T10:04:43.041Z,94029.66
2022-12-26T10:05:58.096Z,94025.06
2022-12-26T10:07:07.350Z,94022.28
2022-12-26T10:08:27.518Z,94027.91
2022-12-26T10:09:47.323Z,94029.97
2022-12-26T10:10:58.340Z,94024.66
2022-12-26T10:12:21.849Z,94030.31
2022-12-26T10:13:29.603Z,94025.41
2022-12-26T10:14:51.685Z,94023.59
2022-12-26T10:15:59.585Z,94021.03
2022-12-26T10:17:05.303Z,94020.13
2022-12-26T10:18:18.069Z,94018.84
2022-12-26T10:19:36.095Z,94011.47
2022-12-26T10:20:46.810Z,94019.41
2022-12-26T10:21:57.886Z,94015.22
2022-12-26T10:23:12.965Z,94014.44
2022-12-26T10:24:16.986Z,94024.34
2022-12-26T10:25:22.689Z,94026.63
2022-12-26T10:26:31.084Z,94022.75
2022-12-26T10:27:39.931Z,94025.97
2022-12-26T10:28:45.621Z,94023.78
2022-12-26T10:29:55.308Z,94019.19
2022-12-26T10:31:00.620Z,94021.25
2022-12-26T10:32:06.577Z,94027.13
2022-12-26T10:33:15.742Z,94024.38
2022-12-26T10:34:19.996Z,94029.75
2022-12-26T10:35:28.497Z,94030.66
2022-12-26T10:36:34.921Z,94028.41
2022-12-26T10:37:40.294Z,94027.03
2022-12-26T10:38:45.547Z,94034.28
2022-12-26T10:39:51.709Z,94029.59
2022-12-26T10:40:56.367Z,94028.75
2022-12-26T10:42:02.290Z,94030.31
2022-12-26T10:43:24.365Z,94024.16
2022-12-26T10:44:27.973Z,94011.13
2022-12-26T10:45:39.371Z,94011.59
2022-12-26T10:47:10.754Z,94018.41
2022-12-26T10:48:15.492Z,94028.94
2022-12-26T10:49:20.130Z,94036.25
2022-12-26T10:50:27.729Z,94036.72
2022-12-26T10:51:30.136Z,94034.50
2022-12-26T10:52:35.143Z,94035.03
2022-12-26T10:53:41.439Z,94035.34
2022-12-26T10:54:45.862Z,94035.91
2022-12-26T10:55:47.439Z,94037.72
2022-12-26T10:56:51.611Z,94035.00
2022-12-26T10:57:54.652Z,94039.69
2022-12-26T10:59:01.625Z,94038.00
2022-12-26T11:00:13.322Z,94047.31
2022-12-26T11:01:35.276Z,94043.72
2022-12-26T11:02:37.073Z,94045.19
2022-12-26T11:03:54.103Z,94043.69
2022-12-26T11:05:48.474Z,94046.56
2022-12-26T11:06:44.541Z,94058.00
2022-12-26T11:07:50.413Z,94053.41
2022-12-26T11:08:52.039Z,94055.03
2022-12-26T11:09:54.446Z,94059.88
2022-12-26T11:11:04.637Z,94053.06
2022-12-26T11:12:06.886Z,94059.16
2022-12-26T11:13:20.289Z,94061.28
2022-12-26T11:14:33.848Z,94050.53
2022-12-26T11:15:39.774Z,94062.50
2022-12-26T11:16:42.806Z,94065.09
2022-12-26T11:17:46.854Z,94066.38
2022-12-26T11:18:50.537Z,94072.16
2022-12-26T11:20:21.959Z,94071.63
2022-12-26T11:21:25.452Z,94078.47
2022-12-26T11:22:28.488Z,94071.38
2022-12-26T11:23:30.667Z,94074.97
2022-12-26T11:24:33.327Z,94075.56
2022-12-26T11:25:43.634Z,94066.66
2022-12-26T11:26:45.279Z,94076.31
2022-12-26T11:27:48.596Z,94075.91
2022-12-26T11:29:06.125Z,94072.00
2022-12-26T11:30:18.933Z,94072.22
2022-12-26T11:31:24.903Z,94076.16
2022-12-26T11:32:28.137Z,94079.06
2022-12-26T11:33:31.619Z,94077.25
2022-12-26T11:34:35.290Z,94076.88
2022-12-26T11:35:44.693Z,94069.81
2022-12-26T11:36:48.304Z,94070.66
2022-12-26T11:37:53.781Z,94079.88
2022-12-26T11:38:58.759Z,94083.03
2022-12-26T11:40:00.579Z,94076.63
2022-12-26T11:41:05.392Z,94081.81
2022-12-26T11:42:10.105Z,94084.03
2022-12-26T11:43:16.149Z,94078.81
2022-12-26T11:44:22.098Z,94081.56
2022-12-26T11:45:27.465Z,94087.72
2022-12-26T11:46:36.523Z,94088.00
2022-12-26T11:47:45.485Z,94088.94
2022-12-26T11:48:50.081Z,94086.13
2022-12-26T11:49:59.056Z,94085.31
2022-12-26T11:51:00.577Z,94085.56
2022-12-26T11:52:23.926Z,94079.81
2022-12-26T11:53:25.530Z,94080.19
2022-12-26T11:54:30.308Z,94090.63
2022-12-26T11:55:33.950Z,94085.59
2022-12-26T11:56:35.516Z,94089.59
2022-12-26T11:57:37.136Z,94078.59
2022-12-26T11:58:38.665Z,94082.13
2022-12-26T11:59:40.229Z,94072.56
2022-12-26T12:00:44.158Z,94076.38
2022-12-26T12:01:46.020Z,94077.78
2022-12-26T12:02:49.404Z,94080.91
2022-12-26T12:03:51.163Z,94074.91
2022-12-26T12:04:56.730Z,94066.44
2022-12-26T12:06:03.082Z,94073.53
2022-12-26T12:07:14.883Z,94065.91
2022-12-26T12:08:41.867Z,94070.69
2022-12-26T12:09:50.916Z,94067.34
2022-12-26T12:11:10.707Z,94072.75
2022-12-26T12:12:18.295Z,94068.69
2022-12-26T12:13:31.344Z,94065.84
2022-12-26T12:14:49.393Z,94063.44
2022-12-26T12:16:03.775Z,94054.50
2022-12-26T12:17:14.864Z,94052.16
2022-12-26T12:18:26.815Z,94052.78
2022-12-26T12:19:40.887Z,94049.59
2022-12-26T12:20:59.409Z,94039.66
2022-12-26T12:22:16.499Z,94042.16
2022-12-26T12:23:40.383Z,94045.97
2022-12-26T12:25:03.990Z,94036.91
2022-12-26T12:26:10.510Z,94038.13
2022-12-26T12:27:20.743Z,94040.75
2022-12-26T12:28:47.802Z,94035.84
2022-12-26T12:30:05.989Z,94039.22
2022-12-26T12:31:16.467Z,94042.19
2022-12-26T12:32:25.197Z,94039.91
2022-12-26T12:33:42.422Z,94043.38
2022-12-26T12:35:14.711Z,94046.06
2022-12-26T12:36:21.242Z,94053.09
2022-12-26T12:37:32.239Z,94049.00
2022-12-26T12:38:41.720Z,94052.25
2022-12-26T12:39:56.394Z,94049.66
2022-12-26T12:41:14.920Z,94058.41
2022-12-26T12:42:28.184Z,94057.72
2022-12-26T12:43:37.078Z,94064.31
2022-12-26T12:44:56.560Z,94055.59
2022-12-26T12:46:08.312Z,94061.56
2022-12-26T12:47:17.596Z,94056.63
2022-12-26T12:48:45.485Z,94067.81
2022-12-26T12:49:57.719Z,94062.03
2022-12-26T12:51:09.943Z,94055.69
2022-12-26T12:52:25.273Z,94065.75
2022-12-26T12:53:53.002Z,94069.09
2022-12-26T12:55:18.625Z,94065.03
2022-12-26T12:56:29.640Z,94059.94